sensor_id;sensor_type;location;lat;lon;timestamp;P1;durP1;ratioP1;P2;durP2;ratioP2
53674;SDS011;39574;50.534;8.500;2024-02-21T00:02:13;17.7;;;7.1;;
53674;SDS011;39574;50.534;8.500;2024-02-21T00:07:11;17.0;;;7.0;;
53674;SDS011;39574;50.534;8.500;2024-02-21T00:12:10;16.9;;;6.6;;
53674;SDS011;39574;50.534;8.500;2024-02-21T00:22:12;18.1;;;6.8;;
53674;SDS011;39574;50.534;8.500;2024-02-21T00:27:07;18.4;;;6.6;;
53674;SDS011;39574;50.534;8.500;2024-02-21T00:32:06;18.0;;;6.7;;
53674;SDS011;39574;50.534;8.500;2024-02-21T00:37:05;17.6;;;6.8;;
53674;SDS011;39574;50.534;8.500;2024-02-21T00:42:04;18.0;;;6.8;;
53674;SDS011;39574;50.534;8.500;2024-02-21T00:47:03;17.2;;;6.9;;
53674;SDS011;39574;50.534;8.500;2024-02-21T00:52:02;17.1;;;6.7;;
53674;SDS011;39574;50.534;8.500;2024-02-21T00:57:00;16.6;;;6.5;;
53674;SDS011;39574;50.534;8.500;2024-02-21T01:02:00;16.9;;;6.6;;
53674;SDS011;39574;50.534;8.500;2024-02-21T01:11:58;17.7;;;6.7;;
53674;SDS011;39574;50.534;8.500;2024-02-21T01:16:56;18.1;;;6.9;;
53674;SDS011;39574;50.534;8.500;2024-02-21T01:26:54;18.7;;;7.0;;
53674;SDS011;39574;50.534;8.500;2024-02-21T01:31:53;18.1;;;6.7;;
53674;SDS011;39574;50.534;8.500;2024-02-21T01:36:52;17.6;;;6.6;;
53674;SDS011;39574;50.534;8.500;2024-02-21T01:41:51;18.0;;;6.5;;
53674;SDS011;39574;50.534;8.500;2024-02-21T01:46:52;17.9;;;6.4;;
53674;SDS011;39574;50.534;8.500;2024-02-21T01:51:49;16.6;;;6.3;;
53674;SDS011;39574;50.534;8.500;2024-02-21T01:56:52;16.7;;;6.3;;
53674;SDS011;39574;50.534;8.500;2024-02-21T02:06:46;16.3;;;6.2;;
53674;SDS011;39574;50.534;8.500;2024-02-21T02:11:45;15.5;;;6.1;;
53674;SDS011;39574;50.534;8.500;2024-02-21T02:16:45;15.1;;;6.0;;
53674;SDS011;39574;50.534;8.500;2024-02-21T02:21:46;14.9;;;6.1;;
53674;SDS011;39574;50.534;8.500;2024-02-21T02:26:41;16.2;;;6.2;;
53674;SDS011;39574;50.534;8.500;2024-02-21T02:31:40;16.7;;;6.2;;
53674;SDS011;39574;50.534;8.500;2024-02-21T02:36:41;16.3;;;6.3;;
53674;SDS011;39574;50.534;8.500;2024-02-21T02:41:40;15.8;;;6.4;;
53674;SDS011;39574;50.534;8.500;2024-02-21T02:46:39;15.0;;;5.9;;
53674;SDS011;39574;50.534;8.500;2024-02-21T02:51:36;15.8;;;5.9;;
53674;SDS011;39574;50.534;8.500;2024-02-21T02:56:35;15.3;;;5.7;;
53674;SDS011;39574;50.534;8.500;2024-02-21T03:01:33;16.1;;;5.7;;
53674;SDS011;39574;50.534;8.500;2024-02-21T03:06:32;15.4;;;5.7;;
53674;SDS011;39574;50.534;8.500;2024-02-21T03:16:30;16.2;;;5.5;;
53674;SDS011;39574;50.534;8.500;2024-02-21T03:21:29;15.7;;;5.4;;
53674;SDS011;39574;50.534;8.500;2024-02-21T03:26:28;14.3;;;5.3;;
53674;SDS011;39574;50.534;8.500;2024-02-21T03:31:27;16.2;;;5.3;;
53674;SDS011;39574;50.534;8.500;2024-02-21T03:36:26;16.1;;;5.6;;
53674;SDS011;39574;50.534;8.500;2024-02-21T03:41:25;16.7;;;5.7;;
53674;SDS011;39574;50.534;8.500;2024-02-21T03:46:24;16.3;;;5.8;;
53674;SDS011;39574;50.534;8.500;2024-02-21T03:51:23;16.6;;;5.8;;
53674;SDS011;39574;50.534;8.500;2024-02-21T03:56:22;16.4;;;5.7;;
53674;SDS011;39574;50.534;8.500;2024-02-21T04:01:21;15.2;;;5.4;;
53674;SDS011;39574;50.534;8.500;2024-02-21T04:06:19;14.7;;;5.4;;
53674;SDS011;39574;50.534;8.500;2024-02-21T04:11:18;14.6;;;5.5;;
53674;SDS011;39574;50.534;8.500;2024-02-21T04:16:17;15.3;;;5.5;;
53674;SDS011;39574;50.534;8.500;2024-02-21T04:26:15;16.1;;;5.7;;
53674;SDS011;39574;50.534;8.500;2024-02-21T04:31:13;16.7;;;5.7;;
53674;SDS011;39574;50.534;8.500;2024-02-21T04:36:12;15.7;;;5.5;;
53674;SDS011;39574;50.534;8.500;2024-02-21T04:41:12;15.3;;;5.5;;
53674;SDS011;39574;50.534;8.500;2024-02-21T04:46:10;15.7;;;5.4;;
53674;SDS011;39574;50.534;8.500;2024-02-21T04:56:08;15.8;;;5.3;;
53674;SDS011;39574;50.534;8.500;2024-02-21T05:01:07;15.5;;;5.2;;
53674;SDS011;39574;50.534;8.500;2024-02-21T05:11:05;15.3;;;5.2;;
53674;SDS011;39574;50.534;8.500;2024-02-21T05:16:04;15.1;;;5.2;;
53674;SDS011;39574;50.534;8.500;2024-02-21T05:21:03;13.5;;;5.0;;
53674;SDS011;39574;50.534;8.500;2024-02-21T05:26:02;13.0;;;4.7;;
53674;SDS011;39574;50.534;8.500;2024-02-21T05:31:00;14.0;;;4.9;;
53674;SDS011;39574;50.534;8.500;2024-02-21T05:35:59;14.2;;;4.9;;
53674;SDS011;39574;50.534;8.500;2024-02-21T05:40:58;13.4;;;4.8;;
53674;SDS011;39574;50.534;8.500;2024-02-21T05:45:57;13.3;;;4.8;;
53674;SDS011;39574;50.534;8.500;2024-02-21T05:55:55;11.8;;;4.6;;
53674;SDS011;39574;50.534;8.500;2024-02-21T06:00:58;13.6;;;4.7;;
53674;SDS011;39574;50.534;8.500;2024-02-21T06:05:54;13.0;;;4.6;;
53674;SDS011;39574;50.534;8.500;2024-02-21T06:10:51;12.0;;;4.6;;
53674;SDS011;39574;50.534;8.500;2024-02-21T06:15:51;12.5;;;4.5;;
53674;SDS011;39574;50.534;8.500;2024-02-21T06:20:50;12.8;;;4.5;;
53674;SDS011;39574;50.534;8.500;2024-02-21T06:25:48;15.5;;;4.7;;
53674;SDS011;39574;50.534;8.500;2024-02-21T06:30:47;15.5;;;4.8;;
53674;SDS011;39574;50.534;8.500;2024-02-21T06:40:45;15.3;;;4.8;;
53674;SDS011;39574;50.534;8.500;2024-02-21T06:45:44;14.6;;;5.1;;
53674;SDS011;39574;50.534;8.500;2024-02-21T06:50:43;14.3;;;5.2;;
53674;SDS011;39574;50.534;8.500;2024-02-21T06:55:42;14.3;;;5.4;;
53674;SDS011;39574;50.534;8.500;2024-02-21T07:00:42;13.8;;;5.3;;
53674;SDS011;39574;50.534;8.500;2024-02-21T07:05:40;15.8;;;5.3;;
53674;SDS011;39574;50.534;8.500;2024-02-21T07:10:39;14.3;;;5.0;;
53674;SDS011;39574;50.534;8.500;2024-02-21T07:15:38;13.6;;;4.8;;
53674;SDS011;39574;50.534;8.500;2024-02-21T07:20:39;13.9;;;4.9;;
53674;SDS011;39574;50.534;8.500;2024-02-21T07:25:35;14.3;;;4.8;;
53674;SDS011;39574;50.534;8.500;2024-02-21T07:30:35;15.3;;;5.0;;
53674;SDS011;39574;50.534;8.500;2024-02-21T07:35:34;14.9;;;5.0;;
53674;SDS011;39574;50.534;8.500;2024-02-21T07:40:32;13.5;;;4.7;;
53674;SDS011;39574;50.534;8.500;2024-02-21T07:50:30;12.5;;;4.7;;
53674;SDS011;39574;50.534;8.500;2024-02-21T07:55:33;14.2;;;4.7;;
53674;SDS011;39574;50.534;8.500;2024-02-21T08:00:28;13.9;;;4.7;;
53674;SDS011;39574;50.534;8.500;2024-02-21T08:05:27;14.2;;;4.8;;
53674;SDS011;39574;50.534;8.500;2024-02-21T08:10:26;14.8;;;4.9;;
53674;SDS011;39574;50.534;8.500;2024-02-21T08:15:25;12.9;;;4.8;;
53674;SDS011;39574;50.534;8.500;2024-02-21T08:20:24;13.8;;;5.0;;
53674;SDS011;39574;50.534;8.500;2024-02-21T08:25:22;14.0;;;4.9;;
53674;SDS011;39574;50.534;8.500;2024-02-21T08:30:22;14.1;;;4.9;;
53674;SDS011;39574;50.534;8.500;2024-02-21T08:40:20;16.3;;;5.2;;
53674;SDS011;39574;50.534;8.500;2024-02-21T08:45:19;16.5;;;5.3;;
53674;SDS011;39574;50.534;8.500;2024-02-21T08:50:18;14.5;;;5.1;;
53674;SDS011;39574;50.534;8.500;2024-02-21T08:55:16;15.0;;;5.1;;
53674;SDS011;39574;50.534;8.500;2024-02-21T09:00:16;14.6;;;5.0;;
53674;SDS011;39574;50.534;8.500;2024-02-21T09:05:14;13.4;;;4.9;;
53674;SDS011;39574;50.534;8.500;2024-02-21T09:10:13;13.8;;;4.8;;
53674;SDS011;39574;50.534;8.500;2024-02-21T09:15:12;13.9;;;5.0;;
53674;SDS011;39574;50.534;8.500;2024-02-21T09:25:10;14.6;;;4.9;;
53674;SDS011;39574;50.534;8.500;2024-02-21T09:30:09;18.5;;;5.0;;
53674;SDS011;39574;50.534;8.500;2024-02-21T09:35:07;17.5;;;5.1;;
53674;SDS011;39574;50.534;8.500;2024-02-21T09:40:11;15.7;;;5.0;;
53674;SDS011;39574;50.534;8.500;2024-02-21T09:45:13;13.6;;;4.9;;
53674;SDS011;39574;50.534;8.500;2024-02-21T09:50:04;13.8;;;4.9;;
53674;SDS011;39574;50.534;8.500;2024-02-21T09:55:04;15.5;;;5.1;;
53674;SDS011;39574;50.534;8.500;2024-02-21T10:00:05;14.4;;;5.0;;
53674;SDS011;39574;50.534;8.500;2024-02-21T10:05:01;14.0;;;5.1;;
53674;SDS011;39574;50.534;8.500;2024-02-21T10:10:00;12.9;;;5.1;;
53674;SDS011;39574;50.534;8.500;2024-02-21T10:15:00;12.6;;;5.2;;
53674;SDS011;39574;50.534;8.500;2024-02-21T10:20:06;13.2;;;5.0;;
53674;SDS011;39574;50.534;8.500;2024-02-21T10:25:06;12.5;;;5.0;;
53674;SDS011;39574;50.534;8.500;2024-02-21T10:29:56;12.4;;;5.0;;
53674;SDS011;39574;50.534;8.500;2024-02-21T10:35:00;12.8;;;5.1;;
53674;SDS011;39574;50.534;8.500;2024-02-21T10:39:53;13.8;;;5.1;;
53674;SDS011;39574;50.534;8.500;2024-02-21T10:44:53;16.9;;;5.3;;
53674;SDS011;39574;50.534;8.500;2024-02-21T10:49:55;17.5;;;5.5;;
53674;SDS011;39574;50.534;8.500;2024-02-21T10:54:52;16.2;;;5.4;;
53674;SDS011;39574;50.534;8.500;2024-02-21T10:59:54;14.9;;;5.1;;
53674;SDS011;39574;50.534;8.500;2024-02-21T11:09:51;13.4;;;4.6;;
53674;SDS011;39574;50.534;8.500;2024-02-21T11:14:50;12.7;;;4.3;;
53674;SDS011;39574;50.534;8.500;2024-02-21T11:19:45;13.4;;;4.4;;
53674;SDS011;39574;50.534;8.500;2024-02-21T11:24:44;13.9;;;4.4;;
53674;SDS011;39574;50.534;8.500;2024-02-21T11:29:43;15.1;;;4.7;;
53674;SDS011;39574;50.534;8.500;2024-02-21T11:34:54;14.8;;;4.7;;
53674;SDS011;39574;50.534;8.500;2024-02-21T11:39:41;14.0;;;4.5;;
53674;SDS011;39574;50.534;8.500;2024-02-21T11:44:40;13.1;;;4.4;;
53674;SDS011;39574;50.534;8.500;2024-02-21T11:49:42;12.9;;;4.3;;
53674;SDS011;39574;50.534;8.500;2024-02-21T11:54:38;12.5;;;4.2;;
53674;SDS011;39574;50.534;8.500;2024-02-21T11:59:39;11.7;;;4.2;;
53674;SDS011;39574;50.534;8.500;2024-02-21T12:04:35;11.0;;;3.9;;
53674;SDS011;39574;50.534;8.500;2024-02-21T12:09:35;12.0;;;4.2;;
53674;SDS011;39574;50.534;8.500;2024-02-21T12:14:34;12.4;;;4.2;;
53674;SDS011;39574;50.534;8.500;2024-02-21T12:19:33;12.5;;;4.4;;
53674;SDS011;39574;50.534;8.500;2024-02-21T12:24:32;12.5;;;4.4;;
53674;SDS011;39574;50.534;8.500;2024-02-21T12:29:34;13.2;;;4.5;;
53674;SDS011;39574;50.534;8.500;2024-02-21T12:34:29;12.8;;;4.6;;
53674;SDS011;39574;50.534;8.500;2024-02-21T12:44:28;12.4;;;4.7;;
53674;SDS011;39574;50.534;8.500;2024-02-21T12:54:29;12.9;;;4.8;;
53674;SDS011;39574;50.534;8.500;2024-02-21T12:59:25;11.9;;;5.1;;
53674;SDS011;39574;50.534;8.500;2024-02-21T13:04:24;12.8;;;5.7;;
53674;SDS011;39574;50.534;8.500;2024-02-21T13:09:23;14.0;;;6.0;;
53674;SDS011;39574;50.534;8.500;2024-02-21T13:14:22;13.8;;;6.1;;
53674;SDS011;39574;50.534;8.500;2024-02-21T13:19:21;12.9;;;5.9;;
53674;SDS011;39574;50.534;8.500;2024-02-21T13:24:20;12.6;;;5.5;;
53674;SDS011;39574;50.534;8.500;2024-02-21T13:29:19;12.2;;;5.4;;
53674;SDS011;39574;50.534;8.500;2024-02-21T13:34:18;11.6;;;5.1;;
53674;SDS011;39574;50.534;8.500;2024-02-21T13:39:21;12.7;;;5.2;;
53674;SDS011;39574;50.534;8.500;2024-02-21T13:44:16;13.8;;;5.6;;
53674;SDS011;39574;50.534;8.500;2024-02-21T13:49:15;12.4;;;5.2;;
53674;SDS011;39574;50.534;8.500;2024-02-21T13:54:13;11.5;;;4.8;;
53674;SDS011;39574;50.534;8.500;2024-02-21T13:59:13;11.4;;;4.5;;
53674;SDS011;39574;50.534;8.500;2024-02-21T14:04:14;11.8;;;4.5;;
53674;SDS011;39574;50.534;8.500;2024-02-21T14:14:10;11.4;;;4.3;;
53674;SDS011;39574;50.534;8.500;2024-02-21T14:19:08;11.0;;;4.1;;
53674;SDS011;39574;50.534;8.500;2024-02-21T14:24:08;11.2;;;4.2;;
53674;SDS011;39574;50.534;8.500;2024-02-21T14:34:06;11.0;;;4.1;;
53674;SDS011;39574;50.534;8.500;2024-02-21T14:39:05;11.4;;;4.2;;
53674;SDS011;39574;50.534;8.500;2024-02-21T14:44:04;11.1;;;4.3;;
53674;SDS011;39574;50.534;8.500;2024-02-21T14:49:03;10.4;;;4.2;;
53674;SDS011;39574;50.534;8.500;2024-02-21T14:54:02;11.6;;;4.5;;
53674;SDS011;39574;50.534;8.500;2024-02-21T14:59:01;10.8;;;4.5;;
53674;SDS011;39574;50.534;8.500;2024-02-21T15:04:01;10.4;;;4.3;;
53674;SDS011;39574;50.534;8.500;2024-02-21T15:08:59;9.8;;;4.1;;
53674;SDS011;39574;50.534;8.500;2024-02-21T15:13:58;9.1;;;4.0;;
53674;SDS011;39574;50.534;8.500;2024-02-21T15:18:57;11.3;;;4.0;;
53674;SDS011;39574;50.534;8.500;2024-02-21T15:23:56;11.6;;;4.1;;
53674;SDS011;39574;50.534;8.500;2024-02-21T15:28:56;11.2;;;4.0;;
53674;SDS011;39574;50.534;8.500;2024-02-21T15:33:55;11.0;;;4.0;;
53674;SDS011;39574;50.534;8.500;2024-02-21T15:38:54;10.2;;;3.9;;
53674;SDS011;39574;50.534;8.500;2024-02-21T15:43:54;9.7;;;3.8;;
53674;SDS011;39574;50.534;8.500;2024-02-21T15:48:56;10.6;;;3.9;;
53674;SDS011;39574;50.534;8.500;2024-02-21T15:58:50;11.3;;;3.8;;
53674;SDS011;39574;50.534;8.500;2024-02-21T16:03:48;13.5;;;4.3;;
53674;SDS011;39574;50.534;8.500;2024-02-21T16:08:47;12.1;;;4.2;;
53674;SDS011;39574;50.534;8.500;2024-02-21T16:13:47;11.4;;;4.1;;
53674;SDS011;39574;50.534;8.500;2024-02-21T16:18:46;10.1;;;3.8;;
53674;SDS011;39574;50.534;8.500;2024-02-21T16:23:45;11.3;;;3.6;;
53674;SDS011;39574;50.534;8.500;2024-02-21T16:28:43;10.8;;;3.6;;
53674;SDS011;39574;50.534;8.500;2024-02-21T16:38:41;10.1;;;3.5;;
53674;SDS011;39574;50.534;8.500;2024-02-21T16:43:40;10.1;;;3.4;;
53674;SDS011;39574;50.534;8.500;2024-02-21T16:48:39;9.4;;;3.2;;
53674;SDS011;39574;50.534;8.500;2024-02-21T16:53:38;8.7;;;3.2;;
53674;SDS011;39574;50.534;8.500;2024-02-21T16:58:38;10.0;;;4.1;;
53674;SDS011;39574;50.534;8.500;2024-02-21T17:03:37;9.9;;;4.1;;
53674;SDS011;39574;50.534;8.500;2024-02-21T17:08:35;13.4;;;6.2;;
53674;SDS011;39574;50.534;8.500;2024-02-21T17:13:34;12.8;;;5.8;;
53674;SDS011;39574;50.534;8.500;2024-02-21T17:18:33;12.7;;;5.6;;
53674;SDS011;39574;50.534;8.500;2024-02-21T17:23:32;10.5;;;4.7;;
53674;SDS011;39574;50.534;8.500;2024-02-21T17:28:36;8.8;;;3.7;;
53674;SDS011;39574;50.534;8.500;2024-02-21T17:33:30;8.2;;;3.3;;
53674;SDS011;39574;50.534;8.500;2024-02-21T17:38:29;8.8;;;3.0;;
53674;SDS011;39574;50.534;8.500;2024-02-21T17:43:28;10.1;;;3.1;;
53674;SDS011;39574;50.534;8.500;2024-02-21T17:48:27;10.1;;;3.2;;
53674;SDS011;39574;50.534;8.500;2024-02-21T17:53:26;9.4;;;3.3;;
53674;SDS011;39574;50.534;8.500;2024-02-21T17:58:25;8.9;;;3.4;;
53674;SDS011;39574;50.534;8.500;2024-02-21T18:03:27;9.5;;;4.0;;
53674;SDS011;39574;50.534;8.500;2024-02-21T18:08:23;9.6;;;4.1;;
53674;SDS011;39574;50.534;8.500;2024-02-21T18:13:23;9.4;;;3.8;;
53674;SDS011;39574;50.534;8.500;2024-02-21T18:23:20;9.8;;;3.6;;
53674;SDS011;39574;50.534;8.500;2024-02-21T18:28:20;9.0;;;3.4;;
53674;SDS011;39574;50.534;8.500;2024-02-21T18:33:18;8.9;;;3.4;;
53674;SDS011;39574;50.534;8.500;2024-02-21T18:38:18;8.4;;;3.3;;
53674;SDS011;39574;50.534;8.500;2024-02-21T18:43:16;8.0;;;3.3;;
53674;SDS011;39574;50.534;8.500;2024-02-21T18:48:15;9.2;;;3.4;;
53674;SDS011;39574;50.534;8.500;2024-02-21T18:53:15;9.9;;;3.4;;
53674;SDS011;39574;50.534;8.500;2024-02-21T18:58:18;9.5;;;3.4;;
53674;SDS011;39574;50.534;8.500;2024-02-21T19:03:13;9.4;;;3.4;;
53674;SDS011;39574;50.534;8.500;2024-02-21T19:08:11;8.8;;;3.4;;
53674;SDS011;39574;50.534;8.500;2024-02-21T19:13:11;8.0;;;3.3;;
53674;SDS011;39574;50.534;8.500;2024-02-21T19:18:10;7.6;;;3.0;;
53674;SDS011;39574;50.534;8.500;2024-02-21T19:23:09;8.0;;;3.2;;
53674;SDS011;39574;50.534;8.500;2024-02-21T19:28:08;9.5;;;4.2;;
53674;SDS011;39574;50.534;8.500;2024-02-21T19:38:05;9.4;;;3.8;;
53674;SDS011;39574;50.534;8.500;2024-02-21T19:43:08;9.0;;;3.9;;
53674;SDS011;39574;50.534;8.500;2024-02-21T19:48:08;8.4;;;3.6;;
53674;SDS011;39574;50.534;8.500;2024-02-21T19:53:03;9.0;;;3.4;;
53674;SDS011;39574;50.534;8.500;2024-02-21T20:03:00;9.3;;;3.7;;
53674;SDS011;39574;50.534;8.500;2024-02-21T20:07:59;8.9;;;3.8;;
53674;SDS011;39574;50.534;8.500;2024-02-21T20:12:58;9.1;;;3.8;;
53674;SDS011;39574;50.534;8.500;2024-02-21T20:17:57;8.1;;;3.6;;
53674;SDS011;39574;50.534;8.500;2024-02-21T20:22:56;8.7;;;3.5;;
53674;SDS011;39574;50.534;8.500;2024-02-21T20:27:55;9.5;;;3.3;;
53674;SDS011;39574;50.534;8.500;2024-02-21T20:32:54;9.3;;;3.2;;
53674;SDS011;39574;50.534;8.500;2024-02-21T20:37:52;9.3;;;3.3;;
53674;SDS011;39574;50.534;8.500;2024-02-21T20:42:52;8.4;;;3.3;;
53674;SDS011;39574;50.534;8.500;2024-02-21T20:47:51;8.3;;;3.4;;
53674;SDS011;39574;50.534;8.500;2024-02-21T20:57:49;7.5;;;3.4;;
53674;SDS011;39574;50.534;8.500;2024-02-21T21:02:48;7.6;;;3.4;;
53674;SDS011;39574;50.534;8.500;2024-02-21T21:07:51;7.5;;;3.3;;
53674;SDS011;39574;50.534;8.500;2024-02-21T21:12:46;8.1;;;3.4;;
53674;SDS011;39574;50.534;8.500;2024-02-21T21:17:45;8.4;;;3.5;;
53674;SDS011;39574;50.534;8.500;2024-02-21T21:22:43;8.1;;;3.4;;
53674;SDS011;39574;50.534;8.500;2024-02-21T21:32:41;7.8;;;3.4;;
53674;SDS011;39574;50.534;8.500;2024-02-21T21:37:40;7.6;;;3.3;;
53674;SDS011;39574;50.534;8.500;2024-02-21T21:42:43;7.8;;;3.3;;
53674;SDS011;39574;50.534;8.500;2024-02-21T21:47:38;18.8;;;3.5;;
53674;SDS011;39574;50.534;8.500;2024-02-21T21:52:36;16.4;;;3.5;;
53674;SDS011;39574;50.534;8.500;2024-02-21T21:57:36;13.5;;;3.5;;
53674;SDS011;39574;50.534;8.500;2024-02-21T22:07:34;10.9;;;3.4;;
53674;SDS011;39574;50.534;8.500;2024-02-21T22:12:33;8.3;;;3.4;;
53674;SDS011;39574;50.534;8.500;2024-02-21T22:17:32;7.6;;;3.4;;
53674;SDS011;39574;50.534;8.500;2024-02-21T22:22:31;7.7;;;3.5;;
53674;SDS011;39574;50.534;8.500;2024-02-21T22:27:29;7.6;;;3.6;;
53674;SDS011;39574;50.534;8.500;2024-02-21T22:32:28;7.3;;;3.4;;
53674;SDS011;39574;50.534;8.500;2024-02-21T22:37:27;7.2;;;3.5;;
53674;SDS011;39574;50.534;8.500;2024-02-21T22:42:30;7.2;;;3.3;;
53674;SDS011;39574;50.534;8.500;2024-02-21T22:47:24;6.6;;;3.2;;
53674;SDS011;39574;50.534;8.500;2024-02-21T22:52:24;6.8;;;3.1;;
53674;SDS011;39574;50.534;8.500;2024-02-21T22:57:23;6.8;;;3.2;;
53674;SDS011;39574;50.534;8.500;2024-02-21T23:02:22;6.5;;;3.1;;
53674;SDS011;39574;50.534;8.500;2024-02-21T23:07:21;6.6;;;3.0;;
53674;SDS011;39574;50.534;8.500;2024-02-21T23:12:19;6.6;;;3.1;;
53674;SDS011;39574;50.534;8.500;2024-02-21T23:17:19;6.7;;;3.0;;
53674;SDS011;39574;50.534;8.500;2024-02-21T23:22:17;7.0;;;3.0;;
53674;SDS011;39574;50.534;8.500;2024-02-21T23:32:15;6.5;;;2.9;;
53674;SDS011;39574;50.534;8.500;2024-02-21T23:42:12;5.8;;;2.7;;
53674;SDS011;39574;50.534;8.500;2024-02-21T23:47:12;5.6;;;2.7;;
53674;SDS011;39574;50.534;8.500;2024-02-21T23:52:11;5.1;;;2.5;;
53674;SDS011;39574;50.534;8.500;2024-02-21T23:57:10;4.7;;;2.4;;
